Time;durP1;ratioP1;P1;durP2;ratioP2;P2;SDS_P1;SDS_P2;PMS_P1;PMS_P2;Temp;Humidity;BMP_temperature;BMP_pressure;BME280_temperature;BME280_humidity;BME280_pressure;Samples;Min_cycle;Max_cycle;Signal;HPM_P1;HPM_P2
2021/03/07 00:02:46;;;;;;;;;28.60;26.40;;;;;7.36;34.83;99797.69;6182562;28;126815;-55
2021/03/07 00:05:48;;;;;;;;;30.25;27.00;;;;;7.40;34.74;99790.94;6185003;28;127423;-55
2021/03/07 00:08:50;;;;;;;;;29.60;26.00;;;;;7.42;34.75;99799.66;6184606;28;126973;-55
2021/03/07 00:11:55;;;;;;;;;28.40;27.00;;;;;7.43;34.71;99793.25;6183804;28;125946;-55
2021/03/07 00:14:56;;;;;;;;;25.00;24.00;;;;;7.41;34.74;99784.59;6183984;28;125275;-55
2021/03/07 00:17:57;;;;;;;;;30.00;27.80;;;;;7.42;34.66;99785.41;6184374;28;127316;-55
2021/03/07 00:20:59;;;;;;;;;32.00;30.00;;;;;7.36;34.67;99786.97;6183690;28;125366;-55
2021/03/07 00:24:01;;;;;;;;;30.20;27.20;;;;;7.33;34.83;99779.28;6166497;28;125530;-55
2021/03/07 00:27:02;;;;;;;;;31.00;27.00;;;;;7.12;34.99;99763.84;6165679;28;125398;-55
2021/03/07 00:30:10;;;;;;;;;33.00;29.00;;;;;6.91;34.93;99728.78;6184236;28;127083;-55
2021/03/07 00:33:11;;;;;;;;;26.00;23.00;;;;;7.16;35.08;99751.75;6183639;28;124738;-55
2021/03/07 00:36:13;;;;;;;;;30.25;26.50;;;;;7.14;34.90;99750.22;6184551;28;126153;-55
2021/03/07 00:39:15;;;;;;;;;30.50;27.25;;;;;7.11;35.13;99738.03;6184249;28;125263;-55
2021/03/07 00:42:16;;;;;;;;;27.50;23.50;;;;;7.07;35.17;99725.16;6196670;28;127655;-55
2021/03/07 00:45:20;;;;;;;;;27.00;26.00;;;;;6.80;35.38;99695.19;6207835;28;126897;-57
2021/03/07 00:48:21;;;;;;;;;27.00;25.00;;;;;6.91;35.33;99715.38;6208740;28;124771;-55
2021/03/07 00:51:23;;;;;;;;;24.00;22.40;;;;;6.69;35.47;99690.25;6190796;28;126876;-57
2021/03/07 00:54:24;;;;;;;;;29.40;26.00;;;;;6.71;35.55;99708.81;6191236;28;125161;-57
2021/03/07 00:57:26;;;;;;;;;27.00;24.00;;;;;6.69;35.70;99689.41;6208565;28;125382;-57
2021/03/07 01:00:30;;;;;;;;;30.00;27.00;;;;;6.62;35.91;99688.44;6209087;28;126581;-57
2021/03/07 01:03:31;;;;;;;;;28.00;25.75;;;;;6.56;35.54;99647.09;6208642;28;124792;-55
2021/03/07 01:06:33;;;;;;;;;26.60;25.60;;;;;6.81;35.53;99696.84;6208592;28;127361;-55
2021/03/07 01:09:35;;;;;;;;;27.40;25.40;;;;;6.79;35.55;99693.50;6208146;28;126907;-55
2021/03/07 01:12:37;;;;;;;;;25.33;23.67;;;;;6.71;35.36;99660.56;6188617;28;125256;-55
2021/03/07 01:15:40;;;;;;;;;22.00;21.00;;;;;6.85;35.06;99676.72;6183221;28;124289;-57
2021/03/07 01:18:42;;;;;;;;;23.00;21.50;;;;;6.84;35.38;99669.69;6182882;28;124990;-57
2021/03/07 01:21:43;;;;;;;;;22.80;21.00;;;;;6.88;35.37;99665.66;6182902;28;126722;-57
2021/03/07 01:24:45;;;;;;;;;21.00;20.00;;;;;6.95;35.09;99657.72;6183613;28;126708;-57
2021/03/07 01:27:46;;;;;;;;;20.60;19.00;;;;;6.90;34.98;99652.91;6183157;28;125519;-55
2021/03/07 01:30:49;;;;;;;;;22.00;21.00;;;;;6.83;35.05;99630.53;6183696;28;127272;-55
2021/03/07 01:33:50;;;;;;;;;23.00;21.75;;;;;6.87;35.30;99639.03;6182833;28;126803;-55
2021/03/07 01:36:52;;;;;;;;;24.00;21.40;;;;;6.93;35.04;99632.94;6182988;28;127092;-55
2021/03/07 01:39:53;;;;;;;;;23.60;21.60;;;;;6.90;35.15;99625.25;6187814;28;125759;-55
2021/03/07 01:43:00;;;;;;;;;26.50;24.00;;;;;6.68;35.17;99589.44;6191136;28;124831;-55
2021/03/07 01:46:01;;;;;;;;;21.00;19.75;;;;;6.66;35.22;99596.81;6212154;28;126681;-55
2021/03/07 01:49:03;;;;;;;;;23.50;20.50;;;;;6.57;35.25;99567.56;6209250;28;126985;-55
2021/03/07 01:52:04;;;;;;;;;24.00;23.00;;;;;6.83;35.40;99603.72;6198320;28;125050;-55
2021/03/07 01:55:06;;;;;;;;;20.00;18.00;;;;;6.77;35.25;99598.22;6212041;28;125145;-55
2021/03/07 01:58:29;;;;;;;;;22.80;19.00;;;;;6.79;35.39;99596.22;6211825;28;125098;-55
2021/03/07 02:01:31;;;;;;;;;18.25;18.00;;;;;6.77;35.15;99593.72;6194567;28;125587;-55
2021/03/07 02:04:33;;;;;;;;;22.40;21.00;;;;;6.82;35.16;99596.69;6194532;28;125212;-55
2021/03/07 02:07:34;;;;;;;;;23.25;20.25;;;;;6.77;35.51;99592.88;6211718;28;126398;-55
2021/03/07 02:10:39;;;;;;;;;20.33;19.00;;;;;6.84;35.40;99604.56;6211462;28;125104;-55
2021/03/07 02:13:42;;;;;;;;;22.00;20.60;;;;;6.62;35.24;99568.72;6211647;28;124657;-55
2021/03/07 02:16:44;;;;;;;;;20.00;18.00;;;;;6.84;35.01;99604.56;6211951;28;127627;-55
2021/03/07 02:19:47;;;;;;;;;17.40;16.80;;;;;6.85;35.21;99592.78;6202915;28;126091;-55
2021/03/07 02:23:12;;;;;;;;;20.80;20.00;;;;;6.64;35.15;99557.81;6187141;28;127451;-55
2021/03/07 02:26:14;;;;;;;;;21.00;19.40;;;;;6.82;35.05;99590.47;6169500;28;127053;-55
2021/03/07 02:29:18;;;;;;;;;19.50;17.75;;;;;6.91;34.83;99587.56;6203871;28;126667;-55
2021/03/07 02:32:24;;;;;;;;;19.40;15.40;;;;;6.77;34.97;99564.22;6210981;28;124891;-55
2021/03/07 02:35:30;;;;;;;;;21.00;19.00;;;;;6.90;34.85;99603.81;6211275;28;125793;-55
2021/03/07 02:38:34;;;;;;;;;20.20;18.80;;;;;6.85;35.12;99596.31;6211946;28;127036;-55
2021/03/07 02:41:35;;;;;;;;;23.00;21.00;;;;;6.78;35.13;99587.34;6211523;28;124897;-55
2021/03/07 02:44:43;;;;;;;;;21.00;19.20;;;;;6.83;34.98;99587.63;6210919;28;125204;-55
2021/03/07 02:47:48;;;;;;;;;20.00;19.40;;;;;6.89;35.12;99580.72;6210783;28;124825;-56
2021/03/07 02:50:51;;;;;;;;;24.75;20.75;;;;;6.94;35.10;99581.81;6207869;28;123928;-56
2021/03/07 02:53:56;;;;;;;;;25.25;22.25;;;;;6.95;35.32;99585.34;6194199;28;127432;-56
2021/03/07 02:56:59;;;;;;;;;21.00;19.60;;;;;6.94;35.37;99581.81;6185321;28;126828;-56
2021/03/07 03:00:03;;;;;;;;;23.80;21.80;;;;;6.82;35.37;99564.53;6185031;28;126108;-56
2021/03/07 03:03:08;;;;;;;;;24.80;22.00;;;;;6.81;35.16;99553.97;6185930;28;124439;-56
2021/03/07 03:06:11;;;;;;;;;24.20;22.20;;;;;6.94;35.31;99573.78;6185756;28;126496;-56
2021/03/07 03:09:16;;;;;;;;;24.40;22.40;;;;;6.64;35.29;99523.00;6185643;28;126005;-55
2021/03/07 03:12:20;;;;;;;;;22.20;21.20;;;;;6.92;35.28;99570.47;6185307;28;125559;-56
2021/03/07 03:15:22;;;;;;;;;21.00;18.00;;;;;6.93;35.17;99571.28;6185321;28;125660;-56
2021/03/07 03:18:27;;;;;;;;;20.40;19.00;;;;;6.92;34.97;99578.50;6185092;28;124940;-56
2021/03/07 03:21:29;;;;;;;;;21.25;19.25;;;;;6.91;35.35;99574.16;6168521;28;126048;-56
2021/03/07 03:24:33;;;;;;;;;21.80;19.00;;;;;6.94;35.08;99568.41;6167936;28;125169;-56
2021/03/07 03:27:36;;;;;;;;;21.00;19.00;;;;;6.96;34.84;99562.88;6186247;28;123931;-56
2021/03/07 03:30:37;;;;;;;;;21.25;19.75;;;;;6.96;34.83;99565.56;6185530;28;124478;-56
2021/03/07 03:33:39;;;;;;;;;20.60;18.60;;;;;6.77;35.00;99558.03;6185858;28;128190;-56
2021/03/07 03:36:41;;;;;;;;;21.80;19.80;;;;;7.00;34.92;99587.47;6185479;28;125165;-56
2021/03/07 03:39:45;;;;;;;;;19.67;17.67;;;;;6.94;35.07;99573.78;6184885;28;127176;-56
2021/03/07 03:42:53;;;;;;;;;21.40;19.20;;;;;6.93;34.88;99572.13;6185306;28;125694;-56
2021/03/07 03:46:01;;;;;;;;;21.00;19.00;;;;;6.91;35.04;99568.78;6167490;28;125775;-56
2021/03/07 03:49:08;;;;;;;;;20.00;19.75;;;;;6.93;34.89;99571.28;6188698;28;124921;-56
2021/03/07 03:52:12;;;;;;;;;23.00;20.00;;;;;6.88;35.23;99565.66;6192220;28;124163;-56
2021/03/07 03:55:23;;;;;;;;;21.00;20.00;;;;;6.85;35.21;99566.81;6209689;28;124580;-56
2021/03/07 03:58:28;;;;;;;;;21.40;19.40;;;;;6.65;35.08;99538.03;6207681;28;125348;-56
2021/03/07 04:01:33;;;;;;;;;21.00;18.60;;;;;6.78;35.49;99568.59;6208251;28;125787;-56
2021/03/07 04:04:35;;;;;;;;;20.50;19.50;;;;;6.44;35.23;99518.13;6210190;28;127489;-56
2021/03/07 04:07:39;;;;;;;;;17.75;16.50;;;;;6.76;35.43;99570.59;6209700;28;125391;-56
2021/03/07 04:10:42;;;;;;;;;21.20;20.60;;;;;6.80;35.46;99566.53;6209691;28;126132;-56
2021/03/07 04:13:44;;;;;;;;;21.00;20.00;;;;;6.76;35.48;99570.59;6208909;28;126119;-56
2021/03/07 04:16:49;;;;;;;;;21.75;20.00;;;;;6.74;35.41;99561.91;6208807;28;126511;-56
2021/03/07 04:19:54;;;;;;;;;21.80;19.40;;;;;6.75;35.45;99557.38;6198226;28;126049;-56
2021/03/07 04:22:56;;;;;;;;;20.00;18.20;;;;;6.70;35.51;99557.06;6184451;28;126348;-55
2021/03/07 04:25:58;;;;;;;;;18.00;16.60;;;;;6.53;35.45;99535.81;6185154;28;127688;-56
2021/03/07 04:29:00;;;;;;;;;18.80;17.80;;;;;6.59;35.53;99555.69;6184387;28;126666;-56
2021/03/07 04:32:04;;;;;;;;;20.00;17.00;;;;;6.35;35.74;99524.53;6166335;28;126674;-56
2021/03/07 04:35:06;;;;;;;;;19.00;17.00;;;;;6.49;36.03;99544.38;6183429;28;125244;-56
2021/03/07 04:38:08;;;;;;;;;19.00;17.00;;;;;6.42;36.05;99546.94;6184408;28;127332;-56
2021/03/07 04:41:11;;;;;;;;;23.00;19.00;;;;;6.38;35.85;99537.59;6184226;28;126419;-55
2021/03/07 04:44:12;;;;;;;;;23.40;20.40;;;;;6.44;35.95;99538.72;6184335;28;126377;-56
2021/03/07 04:47:14;;;;;;;;;21.00;20.00;;;;;6.44;35.94;99533.38;6166577;28;128008;-56
2021/03/07 04:50:15;;;;;;;;;20.00;19.50;;;;;6.06;35.98;99485.09;6197790;28;125331;-56
2021/03/07 04:53:17;;;;;;;;;20.40;18.40;;;;;6.30;36.23;99532.31;6209320;28;127683;-56
2021/03/07 04:56:18;;;;;;;;;20.80;19.20;;;;;6.23;36.56;99514.44;6208886;28;126904;-55
2021/03/07 04:59:21;;;;;;;;;18.00;16.60;;;;;6.20;36.50;99501.41;6208478;28;126333;-56
2021/03/07 05:02:22;;;;;;;;;21.20;19.60;;;;;6.11;36.51;99481.88;6208644;28;125469;-56
2021/03/07 05:05:24;;;;;;;;;19.00;18.75;;;;;6.20;36.54;99490.72;6209524;28;127144;-58
2021/03/07 05:08:26;;;;;;;;;20.40;18.40;;;;;6.21;36.41;99489.66;6208750;28;126502;-55
2021/03/07 05:11:27;;;;;;;;;17.60;16.20;;;;;6.16;36.43;99500.91;6208290;28;125156;-55
2021/03/07 05:14:29;;;;;;;;;17.50;17.50;;;;;6.10;36.54;99480.25;6208399;28;125548;-55
2021/03/07 05:17:30;;;;;;;;;17.60;17.20;;;;;6.12;36.35;99482.72;6208112;28;127077;-55
2021/03/07 05:20:34;;;;;;;;;19.60;19.00;;;;;6.05;36.42;99475.44;6192017;28;127478;-55
2021/03/07 05:23:36;;;;;;;;;20.60;19.60;;;;;6.12;36.54;99472.00;6208003;28;126489;-55
2021/03/07 05:26:38;;;;;;;;;20.60;19.00;;;;;6.15;36.37;99479.72;6208617;28;127405;-55
2021/03/07 05:29:39;;;;;;;;;17.80;17.80;;;;;6.15;36.25;99482.38;6208314;28;126972;-55
2021/03/07 05:32:41;;;;;;;;;22.00;21.00;;;;;6.20;36.45;99482.69;6190714;28;124692;-55
2021/03/07 05:35:43;;;;;;;;;21.40;19.00;;;;;6.12;36.48;99463.97;6207525;28;126585;-55
2021/03/07 05:38:44;;;;;;;;;20.00;18.60;;;;;6.26;36.17;99484.63;6208112;28;126706;-55
2021/03/07 05:41:46;;;;;;;;;20.00;19.00;;;;;6.27;36.41;99475.56;6207513;28;127442;-55
2021/03/07 05:44:48;;;;;;;;;18.50;16.00;;;;;6.34;36.21;99481.88;6208171;28;125352;-55
2021/03/07 05:47:54;;;;;;;;;19.00;17.00;;;;;6.12;36.10;99432.69;6207841;28;124303;-55
2021/03/07 05:50:56;;;;;;;;;20.60;18.60;;;;;6.56;36.00;99472.13;6185881;28;124245;-55
2021/03/07 05:53:58;;;;;;;;;21.00;18.80;;;;;6.59;36.34;99471.78;6183213;28;125162;-55
2021/03/07 05:57:01;;;;;;;;;20.00;19.00;;;;;6.69;36.00;99470.53;6182639;28;125112;-55
2021/03/07 06:00:05;;;;;;;;;19.00;17.00;;;;;6.78;35.64;99469.44;6182541;28;124597;-55
2021/03/07 06:03:06;;;;;;;;;19.75;17.25;;;;;6.87;35.58;99464.81;6165580;28;124747;-55
2021/03/07 06:06:09;;;;;;;;;21.00;19.67;;;;;6.82;35.54;99440.41;6165592;28;125308;-55
2021/03/07 06:09:27;;;;;;;;;21.00;19.00;;;;;6.99;35.24;99467.88;6182198;28;124949;-55
2021/03/07 06:12:28;;;;;;;;;25.00;22.00;;;;;7.08;35.09;99458.72;6182278;28;125134;-55
2021/03/07 06:15:31;;;;;;;;;18.60;17.00;;;;;7.14;35.22;99458.78;6183196;28;126413;-55
2021/03/07 06:18:43;;;;;;;;;18.20;17.20;;;;;7.25;34.76;99452.13;6183498;28;123981;-55
2021/03/07 06:21:45;;;;;;;;;20.60;18.00;;;;;7.49;34.69;99459.84;6195116;28;124956;-55
2021/03/07 06:24:46;;;;;;;;;21.00;20.00;;;;;7.66;34.30;99461.31;6185638;28;126230;-55
2021/03/07 06:27:48;;;;;;;;;20.00;19.00;;;;;7.82;34.10;99462.91;6187280;28;126506;-55
2021/03/07 06:30:50;;;;;;;;;21.00;20.00;;;;;8.03;33.66;99470.16;6186682;28;126899;-55
2021/03/07 06:33:57;;;;;;;;;22.00;20.40;;;;;8.25;33.45;99472.69;6186461;28;126219;-55
2021/03/07 06:37:04;;;;;;;;;18.60;17.60;;;;;8.43;33.20;99469.56;6186833;28;124937;-58
2021/03/07 06:40:25;;;;;;;;;23.00;21.00;;;;;8.48;32.57;99450.16;6185977;28;124851;-55
2021/03/07 06:43:30;;;;;;;;;22.60;20.60;;;;;8.67;32.26;99428.81;6186310;28;124950;-55
2021/03/07 06:46:47;;;;;;;;;21.00;20.00;;;;;9.07;32.21;99458.63;6185985;28;124970;-55
2021/03/07 06:50:06;;;;;;;;;18.75;17.25;;;;;9.17;31.75;99418.75;6168658;28;124805;-55
2021/03/07 06:53:07;;;;;;;;;20.40;18.80;;;;;9.65;31.33;99451.03;6187172;28;127005;-55
2021/03/07 06:56:09;;;;;;;;;19.00;16.40;;;;;10.13;30.67;99459.84;6185960;28;126727;-55
2021/03/07 06:59:21;;;;;;;;;25.40;24.40;;;;;10.78;29.54;99442.91;6208080;28;127527;-56
2021/03/07 07:02:23;;;;;;;;;25.00;23.00;;;;;11.80;28.33;99436.78;6211629;28;125869;-56
2021/03/07 07:05:37;;;;;;;;;21.25;18.25;;;;;12.92;26.67;99431.34;6193307;28;126213;-56
2021/03/07 07:08:45;;;;;;;;;24.00;22.00;;;;;14.07;25.38;99443.09;6210810;28;124796;-56
2021/03/07 07:11:47;;;;;;;;;24.00;23.00;;;;;14.91;24.38;99440.06;6210944;28;127124;-56
2021/03/07 07:14:50;;;;;;;;;23.20;22.00;;;;;15.41;23.60;99431.38;6211003;28;127747;-56
2021/03/07 07:17:52;;;;;;;;;24.00;22.00;;;;;16.04;23.16;99440.31;6211193;28;125441;-56
2021/03/07 07:20:56;;;;;;;;;24.75;21.75;;;;;16.56;22.36;99442.03;6205792;28;126123;-56
2021/03/07 07:23:57;;;;;;;;;26.80;22.60;;;;;17.28;21.66;99445.63;6187482;28;126310;-56
2021/03/07 07:27:00;;;;;;;;;23.00;21.40;;;;;17.82;20.94;99435.72;6211078;28;128498;-56
2021/03/07 07:30:06;;;;;;;;;22.80;21.20;;;;;18.05;20.92;99429.13;6210867;28;126202;-56
2021/03/07 07:33:15;;;;;;;;;24.00;22.50;;;;;18.44;20.37;99440.69;6193078;28;124850;-56
2021/03/07 07:36:37;;;;;;;;;24.60;22.60;;;;;18.75;19.79;99418.06;6210824;28;126964;-56
2021/03/07 07:39:41;;;;;;;;;24.50;23.50;;;;;19.12;19.83;99419.94;6192606;28;125940;-56
2021/03/07 07:42:58;;;;;;;;;28.20;26.00;;;;;19.06;19.56;99418.28;6209941;28;126128;-56
2021/03/07 07:46:11;;;;;;;;;27.80;25.40;;;;;19.23;19.41;99402.50;6211049;28;126928;-57
2021/03/07 07:49:34;;;;;;;;;26.40;24.00;;;;;19.54;19.25;99398.88;6199162;28;126843;-56
2021/03/07 07:52:36;;;;;;;;;27.60;25.60;;;;;19.65;19.05;99405.19;6167394;28;125945;-56
2021/03/07 07:55:47;;;;;;;;;27.00;25.00;;;;;20.13;18.75;99396.56;6185171;28;124936;-56
2021/03/07 07:58:49;;;;;;;;;26.60;25.00;;;;;20.49;18.52;99394.69;6185815;28;127155;-56
2021/03/07 08:01:56;;;;;;;;;26.00;25.20;;;;;20.40;18.03;99390.88;6167446;28;124639;-56
2021/03/07 08:04:58;;;;;;;;;30.00;27.00;;;;;20.80;18.04;99375.50;6185049;28;124964;-56
2021/03/07 08:08:06;;;;;;;;;26.20;24.00;;;;;21.16;17.63;99374.34;6185492;28;125486;-56
2021/03/07 08:11:26;;;;;;;;;24.25;23.25;;;;;21.48;17.35;99371.22;6184835;28;124660;-56
2021/03/07 08:14:35;;;;;;;;;23.25;21.25;;;;;21.19;17.08;99338.16;6184195;28;124447;-56
2021/03/07 08:17:56;;;;;;;;;21.00;20.60;;;;;21.18;16.95;99364.75;6168192;28;127057;-56
2021/03/07 08:20:58;;;;;;;;;22.00;20.60;;;;;21.68;16.55;99357.41;6186377;28;124504;-56
2021/03/07 08:24:03;;;;;;;;;21.00;18.80;;;;;21.47;16.52;99295.50;6198245;28;125201;-56
2021/03/07 08:27:04;;;;;;;;;22.50;20.00;;;;;22.35;16.25;99358.63;6209744;28;127041;-56
2021/03/07 08:30:10;;;;;;;;;20.40;20.00;;;;;22.34;15.98;99329.50;6209030;28;126841;-56
2021/03/07 08:33:41;;;;;;;;;19.00;18.00;;;;;22.59;16.20;99340.25;6202983;28;124078;-56
2021/03/07 08:36:58;;;;;;;;;17.50;17.00;;;;;22.57;16.28;99361.72;6175467;28;126049;-56
2021/03/07 08:40:29;;;;;;;;;16.75;15.75;;;;;22.62;15.82;99347.13;6150069;28;124879;-56
2021/03/07 08:43:31;;;;;;;;;15.80;15.80;;;;;22.79;15.36;99339.28;6191719;28;127029;-56
2021/03/07 08:46:41;;;;;;;;;14.40;14.00;;;;;22.67;15.49;99342.41;6208586;28;126904;-56
2021/03/07 08:49:43;;;;;;;;;15.00;14.00;;;;;22.82;15.24;99330.47;6208484;28;126164;-56
2021/03/07 08:52:44;;;;;;;;;12.60;12.00;;;;;23.06;14.94;99328.56;6207518;28;126360;-56
2021/03/07 08:55:45;;;;;;;;;12.00;11.00;;;;;23.45;15.09;99316.53;6208085;28;125391;-56
2021/03/07 08:58:47;;;;;;;;;14.00;12.60;;;;;23.29;14.98;99311.22;6183450;28;125418;-56
2021/03/07 09:01:49;;;;;;;;;13.75;13.75;;;;;23.35;14.41;99322.97;6183705;28;127525;-56
2021/03/07 09:04:51;;;;;;;;;15.00;14.33;;;;;23.42;14.95;99304.16;6182580;28;126385;-57
2021/03/07 09:08:03;;;;;;;;;12.00;12.00;;;;;23.56;14.76;99305.09;6161807;28;127770;-56
2021/03/07 09:11:09;;;;;;;;;12.00;11.00;;;;;23.82;14.22;99301.97;6158480;28;125973;-56
2021/03/07 09:14:11;;;;;;;;;13.00;11.75;;;;;24.35;14.32;99300.56;6158304;28;126166;-57
2021/03/07 09:17:23;;;;;;;;;11.60;10.60;;;;;24.54;13.91;99290.31;6158774;28;127517;-57
2021/03/07 09:20:57;;;;;;;;;14.20;12.80;;;;;24.60;13.65;99261.53;6159178;28;124748;-57
2021/03/07 09:24:10;;;;;;;;;15.00;13.00;;;;;24.60;13.86;99299.31;6159267;28;127026;-57
2021/03/07 09:27:12;;;;;;;;;12.40;11.00;;;;;24.84;13.48;99246.72;6158653;28;125995;-57
2021/03/07 09:30:18;;;;;;;;;12.00;11.80;;;;;24.97;13.45;99230.19;6174604;28;127084;-57
2021/03/07 09:33:19;;;;;;;;;13.75;13.00;;;;;25.29;13.51;99233.94;6157632;28;126073;-57
2021/03/07 09:36:23;;;;;;;;;13.00;11.50;;;;;25.59;12.95;99257.31;6175003;28;126677;-57
2021/03/07 09:39:24;;;;;;;;;13.00;13.00;;;;;25.88;12.65;99216.31;6182442;28;124865;-58
2021/03/07 09:42:26;;;;;;;;;12.50;12.50;;;;;25.97;12.74;99260.56;6183274;28;127665;-59
2021/03/07 09:45:28;;;;;;;;;15.00;13.60;;;;;25.51;13.06;99233.19;6182382;28;126756;-58
2021/03/07 09:48:48;;;;;;;;;15.00;12.00;;;;;25.13;13.14;99205.88;6157527;28;125871;-59
2021/03/07 09:51:52;;;;;;;;;13.00;12.00;;;;;25.48;12.91;99220.81;6157626;28;126229;-58
2021/03/07 09:54:56;;;;;;;;;13.00;12.40;;;;;25.61;13.10;99217.22;6141072;28;127239;-57
2021/03/07 09:58:15;;;;;;;;;11.00;11.00;;;;;25.58;12.84;99239.13;6159106;28;124381;-58
2021/03/07 10:01:16;;;;;;;;;13.00;11.75;;;;;25.70;12.97;99228.34;6184025;28;125259;-58
2021/03/07 10:04:30;;;;;;;;;13.00;12.00;;;;;25.64;12.98;99224.91;6169241;28;124512;-58
2021/03/07 10:07:32;;;;;;;;;14.00;12.80;;;;;25.86;13.20;99200.03;6162621;28;126534;-58
2021/03/07 10:10:33;;;;;;;;;13.00;12.00;;;;;25.76;13.02;99213.28;6162527;28;127280;-58
2021/03/07 10:13:34;;;;;;;;;13.00;12.00;;;;;25.95;13.13;99226.91;6144743;28;124272;-58
2021/03/07 10:16:36;;;;;;;;;11.25;11.00;;;;;25.77;13.21;99218.50;6162006;28;127635;-58
2021/03/07 10:19:38;;;;;;;;;13.00;12.00;;;;;25.63;13.23;99192.06;6162659;28;126318;-58
2021/03/07 10:22:42;;;;;;;;;13.60;13.40;;;;;25.91;13.00;99204.59;6161137;28;125130;-58
2021/03/07 10:25:48;;;;;;;;;16.40;14.40;;;;;25.70;13.18;99215.38;6161542;28;125975;-58
2021/03/07 10:29:20;;;;;;;;;14.00;13.40;;;;;26.07;13.18;99210.56;6162217;28;127102;-58
2021/03/07 10:32:22;;;;;;;;;15.00;14.00;;;;;25.84;12.84;99201.50;6161748;28;125735;-59
2021/03/07 10:35:23;;;;;;;;;14.00;14.00;;;;;26.09;12.89;99200.03;6164028;28;126322;-58
2021/03/07 10:38:25;;;;;;;;;14.00;13.40;;;;;26.11;12.96;99198.56;6209380;28;127346;-58
2021/03/07 10:41:32;;;;;;;;;17.25;15.25;;;;;25.77;13.13;99187.28;6210662;28;126152;-58
2021/03/07 10:44:34;;;;;;;;;13.60;12.60;;;;;26.06;13.00;99195.94;6211296;28;127727;-58
2021/03/07 10:47:36;;;;;;;;;10.00;10.00;;;;;26.26;12.84;99172.50;6210608;28;125904;-58
2021/03/07 10:50:45;;;;;;;;;13.00;12.00;;;;;26.08;12.60;99184.56;6210997;28;125547;-59
2021/03/07 10:53:46;;;;;;;;;14.00;12.00;;;;;25.57;12.86;99177.56;6193008;28;126082;-59
2021/03/07 10:56:48;;;;;;;;;13.50;13.00;;;;;25.52;13.09;99163.84;6210091;28;125318;-58
2021/03/07 10:59:52;;;;;;;;;13.50;12.50;;;;;25.31;13.14;99146.16;6190603;28;125372;-59
2021/03/07 11:02:54;;;;;;;;;14.00;13.00;;;;;25.38;13.24;99155.63;6185181;28;125103;-58
2021/03/07 11:05:56;;;;;;;;;13.00;13.00;;;;;25.14;13.26;99151.50;6198660;28;126274;-58
2021/03/07 11:08:57;;;;;;;;;10.33;10.33;;;;;24.91;13.49;99107.34;6201955;28;128232;-58
2021/03/07 11:11:58;;;;;;;;;16.00;14.00;;;;;25.08;13.35;99133.44;6166744;28;126325;-58
2021/03/07 11:15:00;;;;;;;;;14.20;12.60;;;;;25.05;13.32;99096.25;6184918;28;125222;-58
2021/03/07 11:18:01;;;;;;;;;16.00;14.00;;;;;25.48;13.38;99134.41;6184836;28;127950;-58
2021/03/07 11:21:04;;;;;;;;;14.00;12.60;;;;;24.99;12.95;99116.81;6167723;28;127591;-58
2021/03/07 11:24:06;;;;;;;;;11.80;11.00;;;;;25.22;13.13;99117.66;6151556;28;128059;-58
2021/03/07 11:27:08;;;;;;;;;12.50;12.00;;;;;24.86;13.26;99098.34;6184041;28;125261;-57
2021/03/07 11:30:10;;;;;;;;;14.80;13.80;;;;;24.96;12.94;99081.59;6184375;28;126988;-57
2021/03/07 11:33:11;;;;;;;;;12.00;10.50;;;;;24.83;13.46;99060.31;6185280;28;127287;-57
2021/03/07 11:36:12;;;;;;;;;14.60;13.00;;;;;24.93;13.41;99091.28;6201352;28;126493;-58
2021/03/07 11:39:14;;;;;;;;;12.60;11.60;;;;;24.65;13.27;99092.44;6209690;28;127290;-58
2021/03/07 11:42:15;;;;;;;;;14.00;13.00;;;;;24.50;13.68;99082.56;6209422;28;126265;-57
2021/03/07 11:45:17;;;;;;;;;12.40;11.80;;;;;24.67;13.73;99068.16;6209580;28;128737;-57
2021/03/07 11:48:18;;;;;;;;;13.00;12.00;;;;;24.74;13.54;99068.53;6209525;28;126767;-57
2021/03/07 11:51:20;;;;;;;;;12.20;12.00;;;;;24.48;13.61;99043.44;6209685;28;126447;-57
2021/03/07 11:54:21;;;;;;;;;10.00;9.00;;;;;24.67;13.55;99062.63;6208950;28;125222;-57
2021/03/07 11:57:22;;;;;;;;;12.60;12.00;;;;;24.50;13.24;99052.25;6185328;28;127730;-57
2021/03/07 12:00:24;;;;;;;;;12.80;11.80;;;;;24.13;13.26;99044.19;6183842;28;127294;-57
2021/03/07 12:03:26;;;;;;;;;10.00;9.00;;;;;24.23;13.31;99049.53;6184266;28;128174;-57
2021/03/07 12:06:27;;;;;;;;;9.80;9.80;;;;;24.29;13.42;99045.53;6183611;28;127257;-58
2021/03/07 12:09:29;;;;;;;;;13.00;12.00;;;;;24.05;13.39;99040.19;6182814;28;126802;-58
2021/03/07 12:12:31;;;;;;;;;9.80;9.00;;;;;23.77;13.28;99038.56;6165944;28;127113;-58
2021/03/07 12:15:32;;;;;;;;;13.00;12.00;;;;;23.45;13.42;99022.09;6197205;28;125483;-58
2021/03/07 12:18:38;;;;;;;;;10.67;10.67;;;;;23.39;13.62;98979.25;6184543;28;125283;-58
2021/03/07 12:21:40;;;;;;;;;10.60;9.20;;;;;23.09;13.73;98975.09;6182074;28;126233;-58
2021/03/07 12:24:42;;;;;;;;;10.60;10.40;;;;;23.08;14.00;99003.72;6184246;28;126815;-57
2021/03/07 12:27:46;;;;;;;;;11.00;10.00;;;;;22.87;13.87;98981.25;6202457;28;125529;-58
2021/03/07 12:30:48;;;;;;;;;11.67;10.33;;;;;23.03;14.17;99004.63;6208767;28;127063;-57
2021/03/07 12:33:49;;;;;;;;;12.00;10.40;;;;;22.72;14.31;99003.50;6209013;28;127400;-57
2021/03/07 12:36:51;;;;;;;;;12.40;11.40;;;;;22.51;14.39;98985.63;6190869;28;127379;-58
2021/03/07 12:39:52;;;;;;;;;12.00;11.00;;;;;22.66;14.79;98986.22;6183058;28;125717;-58
2021/03/07 12:42:53;;;;;;;;;11.20;9.80;;;;;22.61;14.72;98974.50;6183056;28;126792;-58
2021/03/07 12:45:55;;;;;;;;;12.60;10.00;;;;;22.09;14.43;98981.00;6182433;28;125554;-57
2021/03/07 12:48:57;;;;;;;;;11.75;11.00;;;;;21.60;15.26;98971.09;6183357;28;126473;-57
2021/03/07 12:51:59;;;;;;;;;14.00;13.00;;;;;21.02;15.04;98970.28;6182284;28;125028;-58
2021/03/07 12:55:00;;;;;;;;;10.75;10.75;;;;;21.06;15.67;98960.41;6181207;28;126325;-58
2021/03/07 12:58:01;;;;;;;;;12.00;10.20;;;;;;;;6180828;28;126547;-57
2021/03/07 13:01:03;;;;;;;;;12.00;11.00;;;;;20.91;15.96;98953.16;6180180;28;126281;-57
2021/03/07 13:04:05;;;;;;;;;10.00;9.50;;;;;20.73;15.81;98967.53;6183585;28;128167;-58
2021/03/07 13:07:06;;;;;;;;;8.40;8.00;;;;;20.61;16.16;98953.38;6163637;28;126820;-58
2021/03/07 13:10:09;;;;;;;;;11.60;10.00;;;;;20.18;16.15;98912.00;6183354;28;125571;-58
2021/03/07 13:13:10;;;;;;;;;11.40;10.00;;;;;19.77;16.18;98900.47;6181345;28;126261;-57
2021/03/07 13:16:13;;;;;;;;;8.75;8.75;;;;;19.89;16.67;98932.97;6182529;28;125881;-57
2021/03/07 13:19:14;;;;;;;;;11.00;10.60;;;;;19.76;16.50;98936.31;6182949;28;127588;-57
2021/03/07 13:22:16;;;;;;;;;9.00;8.00;;;;;19.74;16.52;98928.38;6166105;28;127140;-58
2021/03/07 13:25:18;;;;;;;;;10.00;9.00;;;;;19.80;16.55;98930.00;6183152;28;126601;-58
2021/03/07 13:28:20;;;;;;;;;10.00;9.67;;;;;19.48;16.34;98923.31;6165442;28;126551;-58
2021/03/07 13:31:21;;;;;;;;;10.40;9.60;;;;;19.24;16.19;98923.06;6165037;28;124420;-57
2021/03/07 13:34:23;;;;;;;;;9.80;9.20;;;;;18.69;16.53;98858.41;6186223;28;125325;-58
2021/03/07 13:37:24;;;;;;;;;9.40;9.00;;;;;18.83;16.71;98906.75;6187545;28;126909;-57
2021/03/07 13:40:40;;;;;;;;;9.20;9.00;;;;;18.73;16.65;98905.91;6182881;28;125858;-57
2021/03/07 13:43:41;;;;;;;;;11.00;9.40;;;;;18.74;17.05;98892.00;6186764;28;126512;-58
2021/03/07 13:46:42;;;;;;;;;9.80;9.00;;;;;18.91;17.03;98880.78;6187419;28;126133;-58
2021/03/07 13:49:44;;;;;;;;;9.00;8.00;;;;;18.64;16.61;98885.72;6188698;28;126655;-58
2021/03/07 13:52:46;;;;;;;;;10.00;9.00;;;;;18.64;16.69;98883.81;6190653;28;127662;-58
2021/03/07 13:55:48;;;;;;;;;10.40;9.00;;;;;18.34;16.79;98878.31;6192456;28;127489;-58
2021/03/07 13:58:49;;;;;;;;;9.40;8.40;;;;;17.99;17.01;98838.16;6169567;28;124492;-59
2021/03/07 14:01:51;;;;;;;;;8.75;8.75;;;;;17.90;17.51;98835.16;6170997;28;126533;-58
2021/03/07 14:04:52;;;;;;;;;11.00;10.00;;;;;18.10;16.96;98856.19;6187059;28;126550;-58